首页
METAR-TAF:

METAR-TAF

机场 :

恩贾梅纳国际机场

恩賈梅納, 乍得

纬度: 12-08N, 经度: 015-02E, 海拔: 295米

当前天气观测

该预报发布于44分钟前的18:00 UTC
风速4节,风向北转东北,在北转东北东南之间变化
温度 25°C
湿度 94%
气压 1012 hPa
能見度: 6000
散云层高于2000英尺
少量云层高于4000英尺, 积雨云.
雷暴, 小雨

METAR: FTTJ 231800Z 02004KT 020V140 6000 -TSRA SCT020 FEW040CB 25/24 Q1012 NOSIG

时间: 19:44 (18:44 UTC)

预报

该预报发布于44分钟前的18:00 UTC
预报有效从23日的 18点(UTC)到 24日的 24点(UTC)
风速6节,风向南转西南
能见度10公里或以上
散云层高于2000英尺
少量云层高于4000英尺, 积雨云.
雷暴
短暂存在
从 23日的 18点(UTC)到 23日的 22点(UTC)
能見度: 4000
雷暴, 雨
从 24日的 0000点(UTC)
风速6节,风向
能见度10公里或以上
散云层高于2000英尺
几率 30% :
短暂存在
从 24日的 12点(UTC)到 24日的 20点(UTC)
能見度: 3500
雷暴, 雨

TAF: FTTJ 231800Z 2318/2424 20006KT 9999 TS SCT020 FEW040CB TEMPO 2318/2322 4000 TSRA FM240000 18006KT 9999 SCT020 PROB30 TEMPO 2412/2420 3500 TSRA

超过4000个机场的气象观测和天气预报(METAR&TAF报告)。

可查询的气象台以黄色和红色小点在地图上表示。

将鼠标移到小点上方,可查看气象台名称。

然后点击查看天气观测和预报。

如需切换地图:点击带黑十字的绿色按钮放大地图;点击带横线的绿色按钮缩小地图;或者点击绿色箭头查看邻近地区的地图。


METAR-TAF: